sensor_id;sensor_type;location;lat;lon;timestamp;P1;durP1;ratioP1;P2;durP2;ratioP2
20230;SDS011;10274;49.022;9.338;2023-08-31T00:01:32;3.63;;;2.73;;
20230;SDS011;10274;49.022;9.338;2023-08-31T00:03:59;3.50;;;2.57;;
20230;SDS011;10274;49.022;9.338;2023-08-31T00:06:26;3.20;;;2.43;;
20230;SDS011;10274;49.022;9.338;2023-08-31T00:08:53;4.07;;;2.80;;
20230;SDS011;10274;49.022;9.338;2023-08-31T00:11:20;3.37;;;2.70;;
20230;SDS011;10274;49.022;9.338;2023-08-31T00:13:47;5.33;;;2.83;;
20230;SDS011;10274;49.022;9.338;2023-08-31T00:16:15;2.93;;;2.57;;
20230;SDS011;10274;49.022;9.338;2023-08-31T00:18:41;3.03;;;2.63;;
20230;SDS011;10274;49.022;9.338;2023-08-31T00:21:10;2.93;;;2.53;;
20230;SDS011;10274;49.022;9.338;2023-08-31T00:23:36;5.20;;;2.47;;
20230;SDS011;10274;49.022;9.338;2023-08-31T00:26:03;3.00;;;2.70;;
20230;SDS011;10274;49.022;9.338;2023-08-31T00:28:31;4.90;;;2.80;;
20230;SDS011;10274;49.022;9.338;2023-08-31T00:30:59;2.50;;;2.30;;
20230;SDS011;10274;49.022;9.338;2023-08-31T00:33:29;2.60;;;2.40;;
20230;SDS011;10274;49.022;9.338;2023-08-31T00:35:58;3.57;;;3.13;;
20230;SDS011;10274;49.022;9.338;2023-08-31T00:38:26;3.37;;;2.77;;
20230;SDS011;10274;49.022;9.338;2023-08-31T00:40:53;3.37;;;2.60;;
20230;SDS011;10274;49.022;9.338;2023-08-31T00:43:19;3.07;;;2.60;;
20230;SDS011;10274;49.022;9.338;2023-08-31T00:45:46;2.90;;;2.33;;
20230;SDS011;10274;49.022;9.338;2023-08-31T00:48:15;2.83;;;2.20;;
20230;SDS011;10274;49.022;9.338;2023-08-31T00:50:44;5.87;;;2.73;;
20230;SDS011;10274;49.022;9.338;2023-08-31T00:53:12;2.93;;;2.30;;
20230;SDS011;10274;49.022;9.338;2023-08-31T00:55:40;4.03;;;2.90;;
20230;SDS011;10274;49.022;9.338;2023-08-31T00:58:07;2.70;;;2.40;;
20230;SDS011;10274;49.022;9.338;2023-08-31T01:00:36;4.47;;;2.97;;
20230;SDS011;10274;49.022;9.338;2023-08-31T01:03:09;4.77;;;3.07;;
20230;SDS011;10274;49.022;9.338;2023-08-31T01:05:49;4.47;;;3.07;;
20230;SDS011;10274;49.022;9.338;2023-08-31T01:08:24;4.03;;;3.33;;
20230;SDS011;10274;49.022;9.338;2023-08-31T01:10:58;5.13;;;2.90;;
20230;SDS011;10274;49.022;9.338;2023-08-31T01:13:30;3.43;;;3.13;;
20230;SDS011;10274;49.022;9.338;2023-08-31T01:15:59;4.47;;;3.10;;
20230;SDS011;10274;49.022;9.338;2023-08-31T01:18:29;3.30;;;3.00;;
20230;SDS011;10274;49.022;9.338;2023-08-31T01:21:02;3.30;;;3.00;;
20230;SDS011;10274;49.022;9.338;2023-08-31T01:23:50;5.10;;;2.93;;
20230;SDS011;10274;49.022;9.338;2023-08-31T01:26:18;3.90;;;2.63;;
20230;SDS011;10274;49.022;9.338;2023-08-31T01:28:46;5.47;;;3.40;;
20230;SDS011;10274;49.022;9.338;2023-08-31T01:31:13;3.67;;;3.00;;
20230;SDS011;10274;49.022;9.338;2023-08-31T01:33:40;5.10;;;3.10;;
20230;SDS011;10274;49.022;9.338;2023-08-31T01:36:08;4.07;;;2.60;;
20230;SDS011;10274;49.022;9.338;2023-08-31T01:38:43;3.37;;;3.03;;
20230;SDS011;10274;49.022;9.338;2023-08-31T01:41:16;3.00;;;2.80;;
20230;SDS011;10274;49.022;9.338;2023-08-31T01:43:45;3.97;;;2.90;;
20230;SDS011;10274;49.022;9.338;2023-08-31T01:46:14;3.90;;;2.60;;
20230;SDS011;10274;49.022;9.338;2023-08-31T01:48:42;5.07;;;2.83;;
20230;SDS011;10274;49.022;9.338;2023-08-31T01:51:09;3.07;;;2.77;;
20230;SDS011;10274;49.022;9.338;2023-08-31T01:53:36;7.43;;;3.10;;
20230;SDS011;10274;49.022;9.338;2023-08-31T01:56:03;3.07;;;2.77;;
20230;SDS011;10274;49.022;9.338;2023-08-31T01:58:32;4.00;;;3.13;;
20230;SDS011;10274;49.022;9.338;2023-08-31T02:00:59;4.37;;;2.90;;
20230;SDS011;10274;49.022;9.338;2023-08-31T02:03:25;3.03;;;2.73;;
20230;SDS011;10274;49.022;9.338;2023-08-31T02:05:52;5.00;;;3.20;;
20230;SDS011;10274;49.022;9.338;2023-08-31T02:08:19;4.23;;;3.70;;
20230;SDS011;10274;49.022;9.338;2023-08-31T02:10:46;4.30;;;3.47;;
20230;SDS011;10274;49.022;9.338;2023-08-31T02:13:13;4.27;;;3.83;;
20230;SDS011;10274;49.022;9.338;2023-08-31T02:15:42;4.30;;;3.90;;
20230;SDS011;10274;49.022;9.338;2023-08-31T02:18:09;4.57;;;3.40;;
20230;SDS011;10274;49.022;9.338;2023-08-31T02:20:36;3.90;;;3.50;;
20230;SDS011;10274;49.022;9.338;2023-08-31T02:23:03;4.40;;;3.33;;
20230;SDS011;10274;49.022;9.338;2023-08-31T02:25:30;5.40;;;3.40;;
20230;SDS011;10274;49.022;9.338;2023-08-31T02:27:57;3.93;;;3.33;;
20230;SDS011;10274;49.022;9.338;2023-08-31T02:30:23;5.00;;;3.60;;
20230;SDS011;10274;49.022;9.338;2023-08-31T02:32:51;5.07;;;3.10;;
20230;SDS011;10274;49.022;9.338;2023-08-31T02:35:18;3.40;;;3.10;;
20230;SDS011;10274;49.022;9.338;2023-08-31T02:37:45;3.77;;;3.00;;
20230;SDS011;10274;49.022;9.338;2023-08-31T02:40:12;4.43;;;3.20;;
20230;SDS011;10274;49.022;9.338;2023-08-31T02:42:40;3.83;;;2.80;;
20230;SDS011;10274;49.022;9.338;2023-08-31T02:45:07;3.70;;;2.90;;
20230;SDS011;10274;49.022;9.338;2023-08-31T02:47:35;5.03;;;3.20;;
20230;SDS011;10274;49.022;9.338;2023-08-31T02:50:03;4.60;;;2.90;;
20230;SDS011;10274;49.022;9.338;2023-08-31T02:52:31;3.40;;;2.73;;
20230;SDS011;10274;49.022;9.338;2023-08-31T02:54:58;3.40;;;2.83;;
20230;SDS011;10274;49.022;9.338;2023-08-31T02:57:25;3.30;;;3.00;;
20230;SDS011;10274;49.022;9.338;2023-08-31T02:59:51;4.17;;;3.53;;
20230;SDS011;10274;49.022;9.338;2023-08-31T03:02:18;3.47;;;3.10;;
20230;SDS011;10274;49.022;9.338;2023-08-31T03:04:45;2.70;;;2.33;;
20230;SDS011;10274;49.022;9.338;2023-08-31T03:07:13;3.20;;;2.80;;
20230;SDS011;10274;49.022;9.338;2023-08-31T03:09:40;3.60;;;2.77;;
20230;SDS011;10274;49.022;9.338;2023-08-31T03:12:07;3.17;;;2.70;;
20230;SDS011;10274;49.022;9.338;2023-08-31T03:14:34;4.27;;;3.27;;
20230;SDS011;10274;49.022;9.338;2023-08-31T03:17:01;5.00;;;3.03;;
20230;SDS011;10274;49.022;9.338;2023-08-31T03:19:28;5.47;;;3.10;;
20230;SDS011;10274;49.022;9.338;2023-08-31T03:21:55;4.17;;;2.97;;
20230;SDS011;10274;49.022;9.338;2023-08-31T03:24:23;6.17;;;3.30;;
20230;SDS011;10274;49.022;9.338;2023-08-31T03:26:49;5.17;;;3.47;;
20230;SDS011;10274;49.022;9.338;2023-08-31T03:29:16;3.33;;;3.03;;
20230;SDS011;10274;49.022;9.338;2023-08-31T03:31:43;3.37;;;2.97;;
20230;SDS011;10274;49.022;9.338;2023-08-31T03:34:10;5.90;;;3.00;;
20230;SDS011;10274;49.022;9.338;2023-08-31T03:36:36;8.27;;;3.30;;
20230;SDS011;10274;49.022;9.338;2023-08-31T03:39:03;4.30;;;3.10;;
20230;SDS011;10274;49.022;9.338;2023-08-31T03:41:32;4.30;;;2.70;;
20230;SDS011;10274;49.022;9.338;2023-08-31T03:44:00;5.07;;;3.03;;
20230;SDS011;10274;49.022;9.338;2023-08-31T03:46:27;3.77;;;3.30;;
20230;SDS011;10274;49.022;9.338;2023-08-31T03:48:54;4.17;;;3.30;;
20230;SDS011;10274;49.022;9.338;2023-08-31T03:51:21;3.73;;;2.80;;
20230;SDS011;10274;49.022;9.338;2023-08-31T03:53:47;4.63;;;2.80;;
20230;SDS011;10274;49.022;9.338;2023-08-31T03:56:14;5.50;;;3.20;;
20230;SDS011;10274;49.022;9.338;2023-08-31T03:58:42;5.30;;;2.63;;
20230;SDS011;10274;49.022;9.338;2023-08-31T04:01:09;3.00;;;2.27;;
20230;SDS011;10274;49.022;9.338;2023-08-31T04:03:36;6.07;;;2.97;;
20230;SDS011;10274;49.022;9.338;2023-08-31T04:06:02;6.00;;;2.97;;
20230;SDS011;10274;49.022;9.338;2023-08-31T04:08:30;3.63;;;2.93;;
20230;SDS011;10274;49.022;9.338;2023-08-31T04:10:57;7.33;;;2.90;;
20230;SDS011;10274;49.022;9.338;2023-08-31T04:13:24;3.90;;;2.80;;
20230;SDS011;10274;49.022;9.338;2023-08-31T04:15:52;3.97;;;3.13;;
20230;SDS011;10274;49.022;9.338;2023-08-31T04:18:19;5.50;;;3.20;;
20230;SDS011;10274;49.022;9.338;2023-08-31T04:20:47;5.77;;;3.30;;
20230;SDS011;10274;49.022;9.338;2023-08-31T04:23:16;4.80;;;3.10;;
20230;SDS011;10274;49.022;9.338;2023-08-31T04:25:42;4.07;;;3.00;;
20230;SDS011;10274;49.022;9.338;2023-08-31T04:28:09;5.27;;;3.37;;
20230;SDS011;10274;49.022;9.338;2023-08-31T04:30:36;5.70;;;3.50;;
20230;SDS011;10274;49.022;9.338;2023-08-31T04:33:05;3.83;;;3.27;;
20230;SDS011;10274;49.022;9.338;2023-08-31T04:35:32;4.97;;;2.80;;
20230;SDS011;10274;49.022;9.338;2023-08-31T04:37:59;6.50;;;3.00;;
20230;SDS011;10274;49.022;9.338;2023-08-31T04:40:27;4.50;;;2.90;;
20230;SDS011;10274;49.022;9.338;2023-08-31T04:42:53;3.83;;;2.80;;
20230;SDS011;10274;49.022;9.338;2023-08-31T04:45:20;5.97;;;2.83;;
20230;SDS011;10274;49.022;9.338;2023-08-31T04:47:47;4.43;;;3.00;;
20230;SDS011;10274;49.022;9.338;2023-08-31T04:50:15;3.53;;;2.67;;
20230;SDS011;10274;49.022;9.338;2023-08-31T04:52:42;4.37;;;3.37;;
20230;SDS011;10274;49.022;9.338;2023-08-31T04:55:09;3.40;;;2.83;;
20230;SDS011;10274;49.022;9.338;2023-08-31T04:57:38;5.60;;;3.00;;
20230;SDS011;10274;49.022;9.338;2023-08-31T05:00:05;5.47;;;3.07;;
20230;SDS011;10274;49.022;9.338;2023-08-31T05:02:34;4.43;;;2.60;;
20230;SDS011;10274;49.022;9.338;2023-08-31T05:05:00;5.43;;;2.97;;
20230;SDS011;10274;49.022;9.338;2023-08-31T05:07:29;6.33;;;3.07;;
20230;SDS011;10274;49.022;9.338;2023-08-31T05:09:55;2.93;;;2.63;;
20230;SDS011;10274;49.022;9.338;2023-08-31T05:12:22;4.53;;;2.63;;
20230;SDS011;10274;49.022;9.338;2023-08-31T05:14:49;2.73;;;2.40;;
20230;SDS011;10274;49.022;9.338;2023-08-31T05:17:16;7.80;;;3.00;;
20230;SDS011;10274;49.022;9.338;2023-08-31T05:19:42;3.53;;;3.10;;
20230;SDS011;10274;49.022;9.338;2023-08-31T05:22:09;4.47;;;2.60;;
20230;SDS011;10274;49.022;9.338;2023-08-31T05:24:37;2.83;;;2.60;;
20230;SDS011;10274;49.022;9.338;2023-08-31T05:27:04;4.87;;;2.60;;
20230;SDS011;10274;49.022;9.338;2023-08-31T05:29:31;2.67;;;2.47;;
20230;SDS011;10274;49.022;9.338;2023-08-31T05:31:57;6.23;;;2.77;;
20230;SDS011;10274;49.022;9.338;2023-08-31T05:34:24;3.63;;;2.20;;
20230;SDS011;10274;49.022;9.338;2023-08-31T05:36:51;4.53;;;2.57;;
20230;SDS011;10274;49.022;9.338;2023-08-31T05:39:18;3.30;;;2.90;;
20230;SDS011;10274;49.022;9.338;2023-08-31T05:41:46;3.37;;;2.43;;
20230;SDS011;10274;49.022;9.338;2023-08-31T05:44:13;3.40;;;2.80;;
20230;SDS011;10274;49.022;9.338;2023-08-31T05:46:39;5.23;;;3.57;;
20230;SDS011;10274;49.022;9.338;2023-08-31T05:49:06;4.03;;;2.60;;
20230;SDS011;10274;49.022;9.338;2023-08-31T05:51:33;3.57;;;2.53;;
20230;SDS011;10274;49.022;9.338;2023-08-31T05:54:00;3.73;;;2.60;;
20230;SDS011;10274;49.022;9.338;2023-08-31T05:56:28;3.37;;;2.60;;
20230;SDS011;10274;49.022;9.338;2023-08-31T05:58:56;3.97;;;2.63;;
20230;SDS011;10274;49.022;9.338;2023-08-31T06:01:22;3.37;;;2.63;;
20230;SDS011;10274;49.022;9.338;2023-08-31T06:03:49;3.97;;;2.90;;
20230;SDS011;10274;49.022;9.338;2023-08-31T06:06:16;3.50;;;2.80;;
20230;SDS011;10274;49.022;9.338;2023-08-31T06:08:43;7.27;;;2.70;;
20230;SDS011;10274;49.022;9.338;2023-08-31T06:11:09;3.37;;;2.57;;
20230;SDS011;10274;49.022;9.338;2023-08-31T06:13:38;3.87;;;2.50;;
20230;SDS011;10274;49.022;9.338;2023-08-31T06:16:06;4.23;;;2.27;;
20230;SDS011;10274;49.022;9.338;2023-08-31T06:18:33;3.33;;;2.30;;
20230;SDS011;10274;49.022;9.338;2023-08-31T06:21:00;4.67;;;2.67;;
20230;SDS011;10274;49.022;9.338;2023-08-31T06:23:27;5.87;;;2.63;;
20230;SDS011;10274;49.022;9.338;2023-08-31T06:25:54;8.57;;;2.93;;
20230;SDS011;10274;49.022;9.338;2023-08-31T06:28:21;5.20;;;2.90;;
20230;SDS011;10274;49.022;9.338;2023-08-31T06:30:47;6.27;;;3.20;;
20230;SDS011;10274;49.022;9.338;2023-08-31T06:33:16;4.93;;;2.43;;
20230;SDS011;10274;49.022;9.338;2023-08-31T06:35:45;4.83;;;2.67;;
20230;SDS011;10274;49.022;9.338;2023-08-31T06:38:13;4.80;;;2.67;;
20230;SDS011;10274;49.022;9.338;2023-08-31T06:40:41;5.93;;;2.53;;
20230;SDS011;10274;49.022;9.338;2023-08-31T06:43:09;5.17;;;2.50;;
20230;SDS011;10274;49.022;9.338;2023-08-31T06:45:36;4.93;;;2.67;;
20230;SDS011;10274;49.022;9.338;2023-08-31T06:48:03;4.60;;;2.47;;
20230;SDS011;10274;49.022;9.338;2023-08-31T06:50:32;5.07;;;2.33;;
20230;SDS011;10274;49.022;9.338;2023-08-31T06:53:00;4.43;;;2.20;;
20230;SDS011;10274;49.022;9.338;2023-08-31T06:55:28;3.87;;;2.67;;
20230;SDS011;10274;49.022;9.338;2023-08-31T06:57:57;5.87;;;2.40;;
20230;SDS011;10274;49.022;9.338;2023-08-31T07:00:23;3.43;;;2.40;;
20230;SDS011;10274;49.022;9.338;2023-08-31T07:02:50;3.70;;;2.27;;
20230;SDS011;10274;49.022;9.338;2023-08-31T07:05:18;5.27;;;2.60;;
20230;SDS011;10274;49.022;9.338;2023-08-31T07:07:51;5.03;;;2.43;;
20230;SDS011;10274;49.022;9.338;2023-08-31T07:10:19;4.00;;;2.40;;
20230;SDS011;10274;49.022;9.338;2023-08-31T07:12:45;3.70;;;2.27;;
20230;SDS011;10274;49.022;9.338;2023-08-31T07:15:12;3.57;;;2.23;;
20230;SDS011;10274;49.022;9.338;2023-08-31T07:17:39;4.53;;;2.70;;
20230;SDS011;10274;49.022;9.338;2023-08-31T07:20:06;4.53;;;2.20;;
20230;SDS011;10274;49.022;9.338;2023-08-31T07:22:34;4.73;;;2.63;;
20230;SDS011;10274;49.022;9.338;2023-08-31T07:25:02;2.73;;;2.27;;
20230;SDS011;10274;49.022;9.338;2023-08-31T07:27:31;4.03;;;2.20;;
20230;SDS011;10274;49.022;9.338;2023-08-31T07:29:57;4.00;;;2.57;;
20230;SDS011;10274;49.022;9.338;2023-08-31T07:32:24;4.03;;;1.93;;
20230;SDS011;10274;49.022;9.338;2023-08-31T07:34:51;3.63;;;2.07;;
20230;SDS011;10274;49.022;9.338;2023-08-31T07:37:17;3.40;;;2.03;;
20230;SDS011;10274;49.022;9.338;2023-08-31T07:39:44;3.63;;;2.20;;
20230;SDS011;10274;49.022;9.338;2023-08-31T07:42:12;4.90;;;3.17;;
20230;SDS011;10274;49.022;9.338;2023-08-31T07:44:39;5.13;;;2.13;;
20230;SDS011;10274;49.022;9.338;2023-08-31T07:47:06;4.27;;;2.10;;
20230;SDS011;10274;49.022;9.338;2023-08-31T07:49:33;4.43;;;2.13;;
20230;SDS011;10274;49.022;9.338;2023-08-31T07:52:00;4.07;;;2.13;;
20230;SDS011;10274;49.022;9.338;2023-08-31T07:54:28;6.13;;;2.37;;
20230;SDS011;10274;49.022;9.338;2023-08-31T07:56:54;7.20;;;2.90;;
20230;SDS011;10274;49.022;9.338;2023-08-31T07:59:22;4.57;;;2.10;;
20230;SDS011;10274;49.022;9.338;2023-08-31T08:01:49;4.07;;;1.90;;
20230;SDS011;10274;49.022;9.338;2023-08-31T08:04:16;5.07;;;2.27;;
20230;SDS011;10274;49.022;9.338;2023-08-31T08:06:44;5.47;;;2.00;;
20230;SDS011;10274;49.022;9.338;2023-08-31T08:09:11;3.87;;;1.93;;
20230;SDS011;10274;49.022;9.338;2023-08-31T08:11:38;3.63;;;1.90;;
20230;SDS011;10274;49.022;9.338;2023-08-31T08:14:05;3.53;;;1.80;;
20230;SDS011;10274;49.022;9.338;2023-08-31T08:16:33;3.40;;;1.67;;
20230;SDS011;10274;49.022;9.338;2023-08-31T08:19:01;3.73;;;1.90;;
20230;SDS011;10274;49.022;9.338;2023-08-31T08:21:28;3.43;;;2.17;;
20230;SDS011;10274;49.022;9.338;2023-08-31T08:23:55;4.50;;;3.10;;
20230;SDS011;10274;49.022;9.338;2023-08-31T08:26:22;5.37;;;3.70;;
20230;SDS011;10274;49.022;9.338;2023-08-31T08:28:48;3.67;;;2.60;;
20230;SDS011;10274;49.022;9.338;2023-08-31T08:31:15;3.53;;;1.90;;
20230;SDS011;10274;49.022;9.338;2023-08-31T08:33:43;5.10;;;1.70;;
20230;SDS011;10274;49.022;9.338;2023-08-31T08:36:10;5.73;;;1.90;;
20230;SDS011;10274;49.022;9.338;2023-08-31T08:38:37;3.73;;;1.80;;
20230;SDS011;10274;49.022;9.338;2023-08-31T08:41:04;3.13;;;2.00;;
20230;SDS011;10274;49.022;9.338;2023-08-31T08:43:31;3.87;;;1.60;;
20230;SDS011;10274;49.022;9.338;2023-08-31T08:46:00;3.30;;;1.60;;
20230;SDS011;10274;49.022;9.338;2023-08-31T08:48:30;1.97;;;1.40;;
20230;SDS011;10274;49.022;9.338;2023-08-31T08:51:01;4.43;;;1.67;;
20230;SDS011;10274;49.022;9.338;2023-08-31T08:53:28;2.83;;;1.63;;
20230;SDS011;10274;49.022;9.338;2023-08-31T08:55:55;3.73;;;2.07;;
20230;SDS011;10274;49.022;9.338;2023-08-31T08:58:23;4.07;;;1.60;;
20230;SDS011;10274;49.022;9.338;2023-08-31T09:00:50;3.70;;;1.60;;
20230;SDS011;10274;49.022;9.338;2023-08-31T09:03:18;3.17;;;1.73;;
20230;SDS011;10274;49.022;9.338;2023-08-31T09:05:45;1.97;;;1.30;;
20230;SDS011;10274;49.022;9.338;2023-08-31T09:08:25;4.00;;;2.00;;
20230;SDS011;10274;49.022;9.338;2023-08-31T09:10:52;2.80;;;1.70;;
20230;SDS011;10274;49.022;9.338;2023-08-31T09:13:23;4.30;;;2.13;;
20230;SDS011;10274;49.022;9.338;2023-08-31T09:15:54;3.10;;;1.63;;
20230;SDS011;10274;49.022;9.338;2023-08-31T09:18:23;2.97;;;1.30;;
20230;SDS011;10274;49.022;9.338;2023-08-31T09:20:50;4.13;;;1.63;;
20230;SDS011;10274;49.022;9.338;2023-08-31T09:23:17;2.63;;;1.83;;
20230;SDS011;10274;49.022;9.338;2023-08-31T09:25:47;5.13;;;1.90;;
20230;SDS011;10274;49.022;9.338;2023-08-31T09:28:15;3.60;;;1.87;;
20230;SDS011;10274;49.022;9.338;2023-08-31T09:30:45;4.30;;;1.80;;
20230;SDS011;10274;49.022;9.338;2023-08-31T09:33:13;4.13;;;1.97;;
20230;SDS011;10274;49.022;9.338;2023-08-31T09:35:46;4.37;;;2.00;;
20230;SDS011;10274;49.022;9.338;2023-08-31T09:38:14;6.90;;;2.20;;
20230;SDS011;10274;49.022;9.338;2023-08-31T09:40:42;4.03;;;1.80;;
20230;SDS011;10274;49.022;9.338;2023-08-31T09:43:09;2.43;;;1.70;;
20230;SDS011;10274;49.022;9.338;2023-08-31T09:45:36;3.17;;;1.50;;
20230;SDS011;10274;49.022;9.338;2023-08-31T09:48:04;2.10;;;1.67;;
20230;SDS011;10274;49.022;9.338;2023-08-31T09:50:32;3.20;;;1.80;;
20230;SDS011;10274;49.022;9.338;2023-08-31T09:53:01;5.00;;;2.07;;
20230;SDS011;10274;49.022;9.338;2023-08-31T09:55:29;2.13;;;1.70;;
20230;SDS011;10274;49.022;9.338;2023-08-31T09:57:58;2.50;;;1.60;;
20230;SDS011;10274;49.022;9.338;2023-08-31T10:00:27;3.80;;;2.00;;
20230;SDS011;10274;49.022;9.338;2023-08-31T10:02:56;2.83;;;1.42;;
20230;SDS011;10274;49.022;9.338;2023-08-31T10:05:25;2.58;;;1.60;;
20230;SDS011;10274;49.022;9.338;2023-08-31T10:07:51;4.70;;;1.58;;
20230;SDS011;10274;49.022;9.338;2023-08-31T10:10:18;4.38;;;1.85;;
20230;SDS011;10274;49.022;9.338;2023-08-31T10:12:47;2.95;;;1.70;;
20230;SDS011;10274;49.022;9.338;2023-08-31T10:15:16;3.20;;;1.55;;
20230;SDS011;10274;49.022;9.338;2023-08-31T10:17:43;2.88;;;1.70;;
20230;SDS011;10274;49.022;9.338;2023-08-31T10:20:11;3.25;;;1.65;;
20230;SDS011;10274;49.022;9.338;2023-08-31T10:22:40;4.32;;;1.70;;
20230;SDS011;10274;49.022;9.338;2023-08-31T10:25:07;3.42;;;1.70;;
20230;SDS011;10274;49.022;9.338;2023-08-31T10:27:38;3.40;;;1.83;;
20230;SDS011;10274;49.022;9.338;2023-08-31T10:30:12;4.43;;;1.95;;
20230;SDS011;10274;49.022;9.338;2023-08-31T10:33:01;2.78;;;1.55;;
20230;SDS011;10274;49.022;9.338;2023-08-31T10:35:48;3.60;;;1.65;;
20230;SDS011;10274;49.022;9.338;2023-08-31T10:38:15;3.67;;;1.75;;
20230;SDS011;10274;49.022;9.338;2023-08-31T10:40:45;2.73;;;1.90;;
20230;SDS011;10274;49.022;9.338;2023-08-31T10:43:45;3.30;;;1.57;;
20230;SDS011;10274;49.022;9.338;2023-08-31T10:46:31;3.40;;;1.50;;
20230;SDS011;10274;49.022;9.338;2023-08-31T10:48:59;2.80;;;1.70;;
20230;SDS011;10274;49.022;9.338;2023-08-31T10:51:28;4.70;;;2.43;;
20230;SDS011;10274;49.022;9.338;2023-08-31T10:54:09;2.57;;;1.67;;
20230;SDS011;10274;49.022;9.338;2023-08-31T10:56:54;5.13;;;1.50;;
20230;SDS011;10274;49.022;9.338;2023-08-31T10:59:46;2.00;;;1.80;;
20230;SDS011;10274;49.022;9.338;2023-08-31T11:02:28;2.90;;;1.73;;
20230;SDS011;10274;49.022;9.338;2023-08-31T11:04:59;3.60;;;1.80;;
20230;SDS011;10274;49.022;9.338;2023-08-31T11:07:28;3.25;;;2.22;;
20230;SDS011;10274;49.022;9.338;2023-08-31T11:10:06;5.07;;;1.70;;
20230;SDS011;10274;49.022;9.338;2023-08-31T11:12:43;3.38;;;2.00;;
20230;SDS011;10274;49.022;9.338;2023-08-31T11:15:11;2.30;;;1.60;;
20230;SDS011;10274;49.022;9.338;2023-08-31T11:17:41;2.27;;;1.53;;
20230;SDS011;10274;49.022;9.338;2023-08-31T11:20:08;3.90;;;1.80;;
20230;SDS011;10274;49.022;9.338;2023-08-31T11:22:40;3.40;;;1.70;;
20230;SDS011;10274;49.022;9.338;2023-08-31T11:25:08;3.17;;;1.87;;
20230;SDS011;10274;49.022;9.338;2023-08-31T11:27:35;4.67;;;2.13;;
20230;SDS011;10274;49.022;9.338;2023-08-31T11:30:03;2.77;;;1.60;;
20230;SDS011;10274;49.022;9.338;2023-08-31T11:32:36;5.17;;;1.97;;
20230;SDS011;10274;49.022;9.338;2023-08-31T11:35:09;4.53;;;2.10;;
20230;SDS011;10274;49.022;9.338;2023-08-31T11:37:36;4.57;;;1.93;;
20230;SDS011;10274;49.022;9.338;2023-08-31T11:40:03;2.17;;;1.70;;
20230;SDS011;10274;49.022;9.338;2023-08-31T11:42:32;4.47;;;1.80;;
20230;SDS011;10274;49.022;9.338;2023-08-31T11:44:58;4.10;;;1.80;;
20230;SDS011;10274;49.022;9.338;2023-08-31T11:47:25;3.97;;;2.00;;
20230;SDS011;10274;49.022;9.338;2023-08-31T11:49:54;3.37;;;1.90;;
20230;SDS011;10274;49.022;9.338;2023-08-31T11:52:20;4.40;;;1.90;;
20230;SDS011;10274;49.022;9.338;2023-08-31T11:54:47;7.07;;;2.30;;
20230;SDS011;10274;49.022;9.338;2023-08-31T11:57:19;4.87;;;1.80;;
20230;SDS011;10274;49.022;9.338;2023-08-31T11:59:53;3.47;;;1.83;;
20230;SDS011;10274;49.022;9.338;2023-08-31T12:02:21;3.83;;;2.00;;
20230;SDS011;10274;49.022;9.338;2023-08-31T12:04:48;2.20;;;1.70;;
20230;SDS011;10274;49.022;9.338;2023-08-31T12:07:17;4.30;;;1.73;;
20230;SDS011;10274;49.022;9.338;2023-08-31T12:09:45;4.87;;;2.03;;
20230;SDS011;10274;49.022;9.338;2023-08-31T12:12:13;4.00;;;1.80;;
20230;SDS011;10274;49.022;9.338;2023-08-31T12:14:40;5.17;;;2.03;;
20230;SDS011;10274;49.022;9.338;2023-08-31T12:17:08;3.17;;;1.90;;
20230;SDS011;10274;49.022;9.338;2023-08-31T12:19:36;3.60;;;1.90;;
20230;SDS011;10274;49.022;9.338;2023-08-31T12:22:04;4.40;;;2.10;;
20230;SDS011;10274;49.022;9.338;2023-08-31T12:24:38;4.00;;;1.87;;
20230;SDS011;10274;49.022;9.338;2023-08-31T12:27:05;4.67;;;1.93;;
20230;SDS011;10274;49.022;9.338;2023-08-31T12:29:32;4.73;;;2.40;;
20230;SDS011;10274;49.022;9.338;2023-08-31T12:31:59;3.33;;;2.00;;
20230;SDS011;10274;49.022;9.338;2023-08-31T12:34:26;3.27;;;1.90;;
20230;SDS011;10274;49.022;9.338;2023-08-31T12:36:52;4.53;;;2.10;;
20230;SDS011;10274;49.022;9.338;2023-08-31T12:39:20;6.17;;;4.83;;
20230;SDS011;10274;49.022;9.338;2023-08-31T12:41:49;4.03;;;2.13;;
20230;SDS011;10274;49.022;9.338;2023-08-31T12:44:15;3.70;;;1.73;;
20230;SDS011;10274;49.022;9.338;2023-08-31T12:46:42;3.27;;;1.70;;
20230;SDS011;10274;49.022;9.338;2023-08-31T12:49:09;5.20;;;1.87;;
20230;SDS011;10274;49.022;9.338;2023-08-31T12:51:35;4.67;;;2.10;;
20230;SDS011;10274;49.022;9.338;2023-08-31T12:54:02;4.10;;;1.90;;
20230;SDS011;10274;49.022;9.338;2023-08-31T12:56:29;4.23;;;2.27;;
20230;SDS011;10274;49.022;9.338;2023-08-31T12:58:57;4.70;;;1.93;;
20230;SDS011;10274;49.022;9.338;2023-08-31T13:01:24;5.03;;;1.90;;
20230;SDS011;10274;49.022;9.338;2023-08-31T13:03:51;5.93;;;2.87;;
20230;SDS011;10274;49.022;9.338;2023-08-31T13:06:18;3.57;;;2.40;;
20230;SDS011;10274;49.022;9.338;2023-08-31T13:08:45;4.40;;;1.97;;
20230;SDS011;10274;49.022;9.338;2023-08-31T13:11:12;4.50;;;2.93;;
20230;SDS011;10274;49.022;9.338;2023-08-31T13:13:40;7.20;;;2.33;;
20230;SDS011;10274;49.022;9.338;2023-08-31T13:16:08;10.43;;;2.87;;
20230;SDS011;10274;49.022;9.338;2023-08-31T13:18:35;4.67;;;1.80;;
20230;SDS011;10274;49.022;9.338;2023-08-31T13:21:02;5.37;;;2.63;;
20230;SDS011;10274;49.022;9.338;2023-08-31T13:23:29;4.93;;;2.10;;
20230;SDS011;10274;49.022;9.338;2023-08-31T13:25:55;3.87;;;2.03;;
20230;SDS011;10274;49.022;9.338;2023-08-31T13:28:22;5.20;;;2.23;;
20230;SDS011;10274;49.022;9.338;2023-08-31T13:30:49;4.73;;;1.80;;
20230;SDS011;10274;49.022;9.338;2023-08-31T13:33:18;6.27;;;2.10;;
20230;SDS011;10274;49.022;9.338;2023-08-31T13:35:45;4.03;;;1.97;;
20230;SDS011;10274;49.022;9.338;2023-08-31T13:38:12;5.97;;;2.63;;
20230;SDS011;10274;49.022;9.338;2023-08-31T13:40:39;3.23;;;1.70;;
20230;SDS011;10274;49.022;9.338;2023-08-31T13:43:06;6.47;;;2.27;;
20230;SDS011;10274;49.022;9.338;2023-08-31T13:45:32;5.50;;;1.70;;
20230;SDS011;10274;49.022;9.338;2023-08-31T13:47:59;3.90;;;2.10;;
20230;SDS011;10274;49.022;9.338;2023-08-31T13:50:27;4.30;;;2.30;;
20230;SDS011;10274;49.022;9.338;2023-08-31T13:52:54;3.73;;;2.13;;
20230;SDS011;10274;49.022;9.338;2023-08-31T13:55:21;3.93;;;1.80;;
20230;SDS011;10274;49.022;9.338;2023-08-31T13:57:48;3.23;;;1.87;;
20230;SDS011;10274;49.022;9.338;2023-08-31T14:00:15;5.20;;;3.00;;
20230;SDS011;10274;49.022;9.338;2023-08-31T14:02:43;4.15;;;2.28;;
20230;SDS011;10274;49.022;9.338;2023-08-31T14:05:09;2.67;;;1.70;;
20230;SDS011;10274;49.022;9.338;2023-08-31T14:07:38;3.33;;;2.60;;
20230;SDS011;10274;49.022;9.338;2023-08-31T14:10:05;3.70;;;2.10;;
20230;SDS011;10274;49.022;9.338;2023-08-31T14:12:32;2.80;;;1.77;;
20230;SDS011;10274;49.022;9.338;2023-08-31T14:15:00;4.27;;;2.00;;
20230;SDS011;10274;49.022;9.338;2023-08-31T14:17:28;3.60;;;1.90;;
20230;SDS011;10274;49.022;9.338;2023-08-31T14:19:56;4.27;;;1.97;;
20230;SDS011;10274;49.022;9.338;2023-08-31T14:22:24;4.03;;;2.03;;
20230;SDS011;10274;49.022;9.338;2023-08-31T14:24:52;3.87;;;2.00;;
20230;SDS011;10274;49.022;9.338;2023-08-31T14:27:19;6.73;;;2.53;;
20230;SDS011;10274;49.022;9.338;2023-08-31T14:29:48;3.30;;;1.83;;
20230;SDS011;10274;49.022;9.338;2023-08-31T14:32:14;5.10;;;2.67;;
20230;SDS011;10274;49.022;9.338;2023-08-31T14:34:41;4.10;;;2.50;;
20230;SDS011;10274;49.022;9.338;2023-08-31T14:37:08;4.73;;;2.87;;
20230;SDS011;10274;49.022;9.338;2023-08-31T14:39:34;5.63;;;2.20;;
20230;SDS011;10274;49.022;9.338;2023-08-31T14:42:03;3.83;;;1.87;;
20230;SDS011;10274;49.022;9.338;2023-08-31T14:44:30;5.13;;;2.10;;
20230;SDS011;10274;49.022;9.338;2023-08-31T14:46:57;2.97;;;1.80;;
20230;SDS011;10274;49.022;9.338;2023-08-31T14:49:24;5.53;;;2.00;;
20230;SDS011;10274;49.022;9.338;2023-08-31T14:51:51;3.30;;;2.00;;
20230;SDS011;10274;49.022;9.338;2023-08-31T14:54:17;3.07;;;1.67;;